LLHA/HFA METAR and TAF weather

Enter ICAO airport designator
Station Type Date Time Source
LLHA METAR 2024/04/15 08:50 UTC NOAA

LLHA 150850Z 32010KT 9999 FEW023 23/17 Q1014


Station Type Date Time Source
LLHA Decoded METAR 2024/04/15 08:50 UTC NOAA

Sde-Haifa Haifa, Israel (LLHA) 32-48N 035-02E 8M
Apr 15, 2024 - 04:50 AM EDT / 2024.04.15 0850 UTC
Wind: from the NW (320 degrees) at 12 MPH (10 KT):0
Visibility: greater than 7 mile(s):0
Sky conditions: mostly clear
Temperature: 73 F (23 C)
Dew Point: 62 F (17 C)
Relative Humidity: 68%
Pressure (altimeter): 29.94 in. Hg (1014 hPa)
ob: LLHA 150850Z 32010KT 9999 FEW023 23/17 Q1014
cycle: 9

Station Type Date Time Source
LLHA TAF 2024/04/15 06:00 UTC NOAA